Accueil
METAR-TAF:

METAR-TAF

Aéroports :

Ely Airport (Yelland Field)

Ely, Nevada, États-Unis

latitude: 39-17-42N, longitude: 114-50-43W, altitude: 1907 m

Observation

Le bulletin a été fait il y a 1 heure et 25 minutes, à 14:53 UTC
Vent 7 kt de sud
Température -2°C
Humidité 54%
Pression 1024 hPa
Visibilité: 16.1 km
Ciel clair

METAR: KELY 141453Z AUTO 19007KT 10SM CLR M02/M10 A3023 RMK AO2 SLP238 T10171100 53006 $

Heure: 08:18 (16:18 UTC)

Prévision

Le bulletin a été fait il y a 4 heures et 58 minutes, à 11:20 UTC
Prévision valable du 14 à 12 UTC au 15 à 12 UTC
Vent 10 kt de sud
Visibilité: 10 km
Nuages épars à une hauteur de 15000 ft
Nuages fragmentés à une hauteur de 20000 ft

TAF: KELY 141120Z 1412/1512 17010KT P6SM SCT150 BKN200

Observations et prévisions météorologiques de plus de 4000 aéroports (messages METAR et TAF).

Les stations disponibles sont représentées par des disques jaunes et rouges sur la carte.

Passer la souris dessus pour voir le nom de la station.

Cliquer dessus pour voir les observations et prévisions météorologiques.

Pour changer de carte: cliquez sur les boutons verts avec une croix noire pour zoomer, sur le bouton vert avec un tiret pour effectuer un zoom arrière, ou sur les flèches vertes pour les cartes adjacentes.


METAR-TAF: